sensor_id;sensor_type;location;lat;lon;timestamp;pressure;altitude;pressure_sealevel;temperature;humidity
25638;BME280;13496;51.040;13.680;2022-10-31T00:03:47;100176.25;;;20.99;54.73
25638;BME280;13496;51.040;13.680;2022-10-31T00:08:54;100182.50;;;20.98;54.57
25638;BME280;13496;51.040;13.680;2022-10-31T00:13:57;100184.53;;;20.96;54.70
25638;BME280;13496;51.040;13.680;2022-10-31T00:19:02;100173.34;;;20.94;54.46
25638;BME280;13496;51.040;13.680;2022-10-31T00:24:05;100184.91;;;20.93;54.43
25638;BME280;13496;51.040;13.680;2022-10-31T00:29:06;100183.28;;;20.92;54.60
25638;BME280;13496;51.040;13.680;2022-10-31T00:34:08;100191.22;;;20.92;54.43
25638;BME280;13496;51.040;13.680;2022-10-31T00:39:11;100183.66;;;20.89;54.64
25638;BME280;13496;51.040;13.680;2022-10-31T00:44:12;100182.88;;;20.88;54.63
25638;BME280;13496;51.040;13.680;2022-10-31T00:49:14;100184.69;;;20.88;54.56
25638;BME280;13496;51.040;13.680;2022-10-31T00:54:16;100179.97;;;20.83;54.39
25638;BME280;13496;51.040;13.680;2022-10-31T00:59:17;100185.06;;;20.85;54.36
25638;BME280;13496;51.040;13.680;2022-10-31T01:04:19;100194.97;;;20.83;54.32
25638;BME280;13496;51.040;13.680;2022-10-31T01:09:21;100202.09;;;20.82;54.62
25638;BME280;13496;51.040;13.680;2022-10-31T01:14:23;100199.66;;;20.81;54.53
25638;BME280;13496;51.040;13.680;2022-10-31T01:19:25;100205.91;;;20.79;54.31
25638;BME280;13496;51.040;13.680;2022-10-31T01:24:32;100197.75;;;20.74;54.42
25638;BME280;13496;51.040;13.680;2022-10-31T01:29:34;100198.41;;;20.76;54.73
25638;BME280;13496;51.040;13.680;2022-10-31T01:34:35;100199.38;;;20.75;54.67
25638;BME280;13496;51.040;13.680;2022-10-31T01:39:37;100196.94;;;20.74;54.65
25638;BME280;13496;51.040;13.680;2022-10-31T01:49:48;100195.50;;;20.71;54.49
25638;BME280;13496;51.040;13.680;2022-10-31T02:00:10;100199.53;;;20.67;54.55
25638;BME280;13496;51.040;13.680;2022-10-31T02:05:26;100204.00;;;20.67;54.55
25638;BME280;13496;51.040;13.680;2022-10-31T02:10:31;100202.16;;;20.67;54.68
25638;BME280;13496;51.040;13.680;2022-10-31T02:15:35;100202.16;;;20.67;54.60
25638;BME280;13496;51.040;13.680;2022-10-31T02:26:09;100204.56;;;20.62;54.67
25638;BME280;13496;51.040;13.680;2022-10-31T02:41:47;100213.88;;;20.58;54.57
25638;BME280;13496;51.040;13.680;2022-10-31T02:51:59;100216.88;;;20.55;54.51
25638;BME280;13496;51.040;13.680;2022-10-31T02:57:04;100224.78;;;20.55;54.73
25638;BME280;13496;51.040;13.680;2022-10-31T03:12:47;100229.78;;;20.50;54.74
25638;BME280;13496;51.040;13.680;2022-10-31T03:22:55;100228.13;;;20.49;54.82
25638;BME280;13496;51.040;13.680;2022-10-31T03:27:59;100226.50;;;20.48;54.51
25638;BME280;13496;51.040;13.680;2022-10-31T03:33:07;100228.50;;;20.46;54.85
25638;BME280;13496;51.040;13.680;2022-10-31T03:38:14;100232.16;;;20.45;54.80
25638;BME280;13496;51.040;13.680;2022-10-31T03:43:21;100235.00;;;20.43;54.93
25638;BME280;13496;51.040;13.680;2022-10-31T03:48:24;100233.16;;;20.44;54.70
25638;BME280;13496;51.040;13.680;2022-10-31T03:53:36;100235.38;;;20.40;54.92
25638;BME280;13496;51.040;13.680;2022-10-31T03:59:00;100245.72;;;20.42;54.55
25638;BME280;13496;51.040;13.680;2022-10-31T04:04:05;100251.34;;;20.39;54.58
25638;BME280;13496;51.040;13.680;2022-10-31T04:09:09;100246.28;;;20.37;54.56
25638;BME280;13496;51.040;13.680;2022-10-31T04:14:12;100249.72;;;20.38;54.52
25638;BME280;13496;51.040;13.680;2022-10-31T04:19:14;100245.25;;;20.38;54.79
25638;BME280;13496;51.040;13.680;2022-10-31T04:24:16;100247.91;;;20.38;54.76
25638;BME280;13496;51.040;13.680;2022-10-31T04:29:18;100251.72;;;20.36;54.55
25638;BME280;13496;51.040;13.680;2022-10-31T04:34:20;100252.72;;;20.35;54.56
25638;BME280;13496;51.040;13.680;2022-10-31T04:39:22;100248.47;;;20.34;54.46
25638;BME280;13496;51.040;13.680;2022-10-31T04:44:36;100253.94;;;20.32;54.88
25638;BME280;13496;51.040;13.680;2022-10-31T04:49:38;100254.56;;;20.34;54.84
25638;BME280;13496;51.040;13.680;2022-10-31T04:54:40;100257.56;;;20.31;54.85
25638;BME280;13496;51.040;13.680;2022-10-31T05:00:05;100262.03;;;20.30;54.67
25638;BME280;13496;51.040;13.680;2022-10-31T05:05:08;100267.47;;;20.29;54.69
25638;BME280;13496;51.040;13.680;2022-10-31T05:10:12;100267.66;;;20.27;54.93
25638;BME280;13496;51.040;13.680;2022-10-31T05:15:15;100259.56;;;20.29;54.65
25638;BME280;13496;51.040;13.680;2022-10-31T05:20:35;100267.03;;;20.25;54.83
25638;BME280;13496;51.040;13.680;2022-10-31T05:25:37;100270.28;;;20.27;55.04
25638;BME280;13496;51.040;13.680;2022-10-31T05:30:39;100263.75;;;20.23;54.99
25638;BME280;13496;51.040;13.680;2022-10-31T05:35:46;100268.88;;;20.25;54.73
25638;BME280;13496;51.040;13.680;2022-10-31T05:41:09;100273.28;;;20.24;54.61
25638;BME280;13496;51.040;13.680;2022-10-31T05:46:11;100273.28;;;20.24;54.56
25638;BME280;13496;51.040;13.680;2022-10-31T05:51:31;100276.94;;;20.23;54.70
25638;BME280;13496;51.040;13.680;2022-10-31T05:56:33;100286.66;;;20.23;54.72
25638;BME280;13496;51.040;13.680;2022-10-31T06:01:35;100285.84;;;20.22;54.63
25638;BME280;13496;51.040;13.680;2022-10-31T06:06:41;100287.69;;;20.22;55.10
25638;BME280;13496;51.040;13.680;2022-10-31T06:11:43;100286.22;;;20.19;54.89
25638;BME280;13496;51.040;13.680;2022-10-31T06:17:05;100294.75;;;20.21;55.07
25638;BME280;13496;51.040;13.680;2022-10-31T06:22:27;100292.13;;;20.21;54.93
25638;BME280;13496;51.040;13.680;2022-10-31T06:27:30;100300.84;;;20.22;54.77
25638;BME280;13496;51.040;13.680;2022-10-31T06:32:34;100303.28;;;20.23;54.99
25638;BME280;13496;51.040;13.680;2022-10-31T06:37:36;100312.19;;;20.22;54.72
25638;BME280;13496;51.040;13.680;2022-10-31T06:42:58;100323.75;;;20.21;54.71
25638;BME280;13496;51.040;13.680;2022-10-31T06:48:00;100332.63;;;20.20;54.71
25638;BME280;13496;51.040;13.680;2022-10-31T06:53:06;100336.94;;;20.21;54.96
25638;BME280;13496;51.040;13.680;2022-10-31T06:58:10;100335.91;;;20.22;54.94
25638;BME280;13496;51.040;13.680;2022-10-31T07:03:14;100338.72;;;20.21;54.76
25638;BME280;13496;51.040;13.680;2022-10-31T07:08:20;100342.19;;;20.21;54.79
25638;BME280;13496;51.040;13.680;2022-10-31T07:13:23;100341.19;;;20.22;54.86
25638;BME280;13496;51.040;13.680;2022-10-31T07:18:42;100344.06;;;20.27;54.66
25638;BME280;13496;51.040;13.680;2022-10-31T07:23:49;100355.16;;;20.38;54.31
25638;BME280;13496;51.040;13.680;2022-10-31T07:29:09;100351.22;;;20.48;54.30
25638;BME280;13496;51.040;13.680;2022-10-31T07:34:11;100356.41;;;20.57;53.95
25638;BME280;13496;51.040;13.680;2022-10-31T07:39:32;100355.84;;;20.61;53.76
25638;BME280;13496;51.040;13.680;2022-10-31T07:44:34;100368.72;;;20.71;53.57
25638;BME280;13496;51.040;13.680;2022-10-31T07:49:54;100365.53;;;20.75;53.61
25638;BME280;13496;51.040;13.680;2022-10-31T07:55:15;100364.97;;;20.80;53.28
25638;BME280;13496;51.040;13.680;2022-10-31T08:00:22;100361.13;;;20.83;53.30
25638;BME280;13496;51.040;13.680;2022-10-31T08:05:25;100365.09;;;20.93;53.26
25638;BME280;13496;51.040;13.680;2022-10-31T08:10:59;100366.19;;;20.99;53.25
25638;BME280;13496;51.040;13.680;2022-10-31T08:16:00;100368.41;;;21.02;53.63
25638;BME280;13496;51.040;13.680;2022-10-31T08:21:07;100367.03;;;21.06;53.54
25638;BME280;13496;51.040;13.680;2022-10-31T08:26:08;100361.22;;;21.11;53.48
25638;BME280;13496;51.040;13.680;2022-10-31T08:31:10;100356.97;;;21.16;53.18
25638;BME280;13496;51.040;13.680;2022-10-31T08:36:15;100354.19;;;21.24;52.86
25638;BME280;13496;51.040;13.680;2022-10-31T08:41:31;100353.91;;;21.34;52.80
25638;BME280;13496;51.040;13.680;2022-10-31T08:46:35;100357.00;;;21.72;52.05
25638;BME280;13496;51.040;13.680;2022-10-31T08:51:37;100338.81;;;26.06;43.06
25638;BME280;13496;51.040;13.680;2022-10-31T08:56:39;100339.38;;;26.99;40.93
25638;BME280;13496;51.040;13.680;2022-10-31T09:01:54;100338.09;;;26.90;41.19
25638;BME280;13496;51.040;13.680;2022-10-31T09:06:56;100349.41;;;24.25;45.78
25638;BME280;13496;51.040;13.680;2022-10-31T09:11:58;100356.34;;;23.08;48.51
25638;BME280;13496;51.040;13.680;2022-10-31T09:17:23;100361.91;;;22.65;49.51
25638;BME280;13496;51.040;13.680;2022-10-31T09:22:44;100364.94;;;22.49;50.18
25638;BME280;13496;51.040;13.680;2022-10-31T09:27:46;100367.69;;;21.86;52.03
25638;BME280;13496;51.040;13.680;2022-10-31T09:32:58;100370.63;;;21.20;53.69
25638;BME280;13496;51.040;13.680;2022-10-31T09:38:03;100367.41;;;21.24;53.98
25638;BME280;13496;51.040;13.680;2022-10-31T09:48:30;100361.03;;;21.34;53.88
25638;BME280;13496;51.040;13.680;2022-10-31T09:53:52;100361.09;;;21.40;53.75
25638;BME280;13496;51.040;13.680;2022-10-31T09:58:59;100363.13;;;21.45;53.95
25638;BME280;13496;51.040;13.680;2022-10-31T10:04:20;100357.91;;;21.52;53.72
25638;BME280;13496;51.040;13.680;2022-10-31T10:09:35;100359.16;;;21.56;53.67
25638;BME280;13496;51.040;13.680;2022-10-31T10:20:26;100352.03;;;21.84;52.73
25638;BME280;13496;51.040;13.680;2022-10-31T10:25:37;100350.53;;;21.75;52.95
25638;BME280;13496;51.040;13.680;2022-10-31T10:30:48;100334.72;;;21.82;53.00
25638;BME280;13496;51.040;13.680;2022-10-31T10:36:01;100343.03;;;21.79;53.26
25638;BME280;13496;51.040;13.680;2022-10-31T10:41:11;100333.13;;;21.81;53.51
25638;BME280;13496;51.040;13.680;2022-10-31T10:57:41;100327.41;;;21.84;53.02
25638;BME280;13496;51.040;13.680;2022-10-31T11:02:47;100316.50;;;21.93;53.20
25638;BME280;13496;51.040;13.680;2022-10-31T11:07:49;100311.63;;;21.97;52.84
25638;BME280;13496;51.040;13.680;2022-10-31T11:13:05;100305.38;;;22.05;52.82
25638;BME280;13496;51.040;13.680;2022-10-31T11:18:21;100294.84;;;22.11;52.83
25638;BME280;13496;51.040;13.680;2022-10-31T11:23:25;100297.06;;;22.08;52.44
25638;BME280;13496;51.040;13.680;2022-10-31T11:28:29;100291.72;;;22.01;52.82
25638;BME280;13496;51.040;13.680;2022-10-31T11:33:34;100287.22;;;21.95;52.50
25638;BME280;13496;51.040;13.680;2022-10-31T11:38:41;100281.97;;;22.02;52.99
25638;BME280;13496;51.040;13.680;2022-10-31T11:43:56;100272.22;;;22.02;52.68
25638;BME280;13496;51.040;13.680;2022-10-31T11:48:58;100268.19;;;22.13;53.14
25638;BME280;13496;51.040;13.680;2022-10-31T11:54:02;100258.81;;;22.04;53.61
25638;BME280;13496;51.040;13.680;2022-10-31T11:59:16;100255.97;;;22.05;53.75
25638;BME280;13496;51.040;13.680;2022-10-31T12:04:22;100253.56;;;22.10;53.51
25638;BME280;13496;51.040;13.680;2022-10-31T12:09:28;100247.09;;;22.19;53.45
25638;BME280;13496;51.040;13.680;2022-10-31T12:30:54;100229.03;;;22.43;52.93
25638;BME280;13496;51.040;13.680;2022-10-31T12:36:12;100227.81;;;22.39;53.36
25638;BME280;13496;51.040;13.680;2022-10-31T12:41:51;100226.00;;;22.33;53.37
25638;BME280;13496;51.040;13.680;2022-10-31T12:47:06;100217.44;;;22.31;53.26
25638;BME280;13496;51.040;13.680;2022-10-31T12:52:35;100209.72;;;22.29;53.61
25638;BME280;13496;51.040;13.680;2022-10-31T12:57:42;100204.22;;;22.31;53.51
25638;BME280;13496;51.040;13.680;2022-10-31T13:13:43;100182.47;;;22.29;53.51
25638;BME280;13496;51.040;13.680;2022-10-31T13:18:50;100183.47;;;22.28;53.54
25638;BME280;13496;51.040;13.680;2022-10-31T13:23:54;100171.91;;;22.29;53.60
25638;BME280;13496;51.040;13.680;2022-10-31T13:45:15;100166.19;;;22.32;53.33
25638;BME280;13496;51.040;13.680;2022-10-31T13:50:21;100162.13;;;22.29;53.45
25638;BME280;13496;51.040;13.680;2022-10-31T13:55:44;100161.31;;;22.29;53.48
25638;BME280;13496;51.040;13.680;2022-10-31T14:06:17;100156.84;;;22.29;53.68
25638;BME280;13496;51.040;13.680;2022-10-31T14:11:24;100144.63;;;22.28;53.45
25638;BME280;13496;51.040;13.680;2022-10-31T14:16:30;100141.16;;;22.28;53.52
25638;BME280;13496;51.040;13.680;2022-10-31T14:21:43;100132.25;;;22.29;53.44
25638;BME280;13496;51.040;13.680;2022-10-31T14:26:57;100130.41;;;22.29;53.42
25638;BME280;13496;51.040;13.680;2022-10-31T14:48:11;100117.19;;;22.29;53.48
25638;BME280;13496;51.040;13.680;2022-10-31T14:53:23;100115.38;;;22.30;53.69
25638;BME280;13496;51.040;13.680;2022-10-31T14:58:36;100105.59;;;22.30;53.57
25638;BME280;13496;51.040;13.680;2022-10-31T15:03:43;100108.03;;;22.32;53.23
25638;BME280;13496;51.040;13.680;2022-10-31T15:08:53;100105.59;;;22.30;53.34
25638;BME280;13496;51.040;13.680;2022-10-31T15:13:58;100101.53;;;22.28;53.50
25638;BME280;13496;51.040;13.680;2022-10-31T15:19:06;100090.13;;;22.27;53.57
25638;BME280;13496;51.040;13.680;2022-10-31T15:24:14;100093.59;;;22.28;53.42
25638;BME280;13496;51.040;13.680;2022-10-31T15:29:25;100089.31;;;22.27;53.55
25638;BME280;13496;51.040;13.680;2022-10-31T15:39:29;100085.66;;;22.28;53.64
25638;BME280;13496;51.040;13.680;2022-10-31T15:44:33;100077.94;;;22.26;54.00
25638;BME280;13496;51.040;13.680;2022-10-31T15:49:53;100076.72;;;22.29;54.17
25638;BME280;13496;51.040;13.680;2022-10-31T15:55:05;100066.75;;;22.31;53.67
25638;BME280;13496;51.040;13.680;2022-10-31T16:05:35;100057.19;;;22.30;54.20
25638;BME280;13496;51.040;13.680;2022-10-31T16:10:37;100052.94;;;22.29;53.77
25638;BME280;13496;51.040;13.680;2022-10-31T16:15:51;100058.00;;;22.37;53.79
25638;BME280;13496;51.040;13.680;2022-10-31T16:20:55;100043.78;;;22.31;54.25
25638;BME280;13496;51.040;13.680;2022-10-31T16:25:57;100045.41;;;22.32;54.38
25638;BME280;13496;51.040;13.680;2022-10-31T16:30:59;100057.38;;;22.35;54.39
25638;BME280;13496;51.040;13.680;2022-10-31T16:41:28;100051.69;;;22.44;54.30
25638;BME280;13496;51.040;13.680;2022-10-31T16:46:30;100052.09;;;22.41;54.39
25638;BME280;13496;51.040;13.680;2022-10-31T16:51:32;100048.66;;;22.41;54.44
25638;BME280;13496;51.040;13.680;2022-10-31T16:56:36;100053.53;;;22.37;54.63
25638;BME280;13496;51.040;13.680;2022-10-31T17:01:40;100048.66;;;22.34;54.59
25638;BME280;13496;51.040;13.680;2022-10-31T17:06:42;100049.28;;;22.30;54.63
25638;BME280;13496;51.040;13.680;2022-10-31T17:11:47;100050.31;;;22.29;54.46
25638;BME280;13496;51.040;13.680;2022-10-31T17:16:49;100042.56;;;22.27;54.63
25638;BME280;13496;51.040;13.680;2022-10-31T17:21:51;100039.31;;;22.25;54.49
25638;BME280;13496;51.040;13.680;2022-10-31T17:26:53;100038.47;;;22.25;54.43
25638;BME280;13496;51.040;13.680;2022-10-31T17:31:54;100034.63;;;22.20;54.59
25638;BME280;13496;51.040;13.680;2022-10-31T17:36:56;100038.91;;;22.21;54.33
25638;BME280;13496;51.040;13.680;2022-10-31T17:41:58;100025.47;;;22.23;54.21
25638;BME280;13496;51.040;13.680;2022-10-31T17:46:59;100027.72;;;22.19;54.16
25638;BME280;13496;51.040;13.680;2022-10-31T17:52:02;100016.13;;;22.20;54.23
25638;BME280;13496;51.040;13.680;2022-10-31T17:57:04;100025.06;;;22.19;54.22
25638;BME280;13496;51.040;13.680;2022-10-31T18:02:08;100019.78;;;22.19;54.32
25638;BME280;13496;51.040;13.680;2022-10-31T18:07:10;100016.34;;;22.19;53.98
25638;BME280;13496;51.040;13.680;2022-10-31T18:12:13;100015.72;;;22.17;54.01
25638;BME280;13496;51.040;13.680;2022-10-31T18:17:15;100010.66;;;22.15;54.07
25638;BME280;13496;51.040;13.680;2022-10-31T18:22:16;100011.69;;;22.14;54.30
25638;BME280;13496;51.040;13.680;2022-10-31T18:27:18;100011.03;;;22.12;54.33
25638;BME280;13496;51.040;13.680;2022-10-31T18:32:20;100007.56;;;22.12;54.06
25638;BME280;13496;51.040;13.680;2022-10-31T18:37:22;100004.13;;;22.11;54.20
25638;BME280;13496;51.040;13.680;2022-10-31T18:42:24;99993.75;;;22.10;54.24
25638;BME280;13496;51.040;13.680;2022-10-31T18:47:25;99993.97;;;22.08;54.26
25638;BME280;13496;51.040;13.680;2022-10-31T18:52:27;99997.63;;;22.07;54.21
25638;BME280;13496;51.040;13.680;2022-10-31T18:57:29;99989.69;;;22.07;54.19
25638;BME280;13496;51.040;13.680;2022-10-31T19:02:31;99986.44;;;22.05;54.13
25638;BME280;13496;51.040;13.680;2022-10-31T19:07:32;99978.72;;;22.04;54.45
25638;BME280;13496;51.040;13.680;2022-10-31T19:12:34;99983.19;;;22.03;54.46
25638;BME280;13496;51.040;13.680;2022-10-31T19:17:36;99979.94;;;22.01;54.21
25638;BME280;13496;51.040;13.680;2022-10-31T19:22:37;99976.72;;;21.99;54.15
25638;BME280;13496;51.040;13.680;2022-10-31T19:27:39;99971.41;;;21.99;54.13
25638;BME280;13496;51.040;13.680;2022-10-31T19:32:41;99975.06;;;21.98;54.09
25638;BME280;13496;51.040;13.680;2022-10-31T19:37:43;99970.81;;;21.97;54.20
25638;BME280;13496;51.040;13.680;2022-10-31T19:42:44;99967.53;;;21.95;54.23
25638;BME280;13496;51.040;13.680;2022-10-31T19:47:46;99955.34;;;21.94;54.27
25638;BME280;13496;51.040;13.680;2022-10-31T19:52:48;99959.03;;;21.93;54.12
25638;BME280;13496;51.040;13.680;2022-10-31T19:57:50;99942.53;;;21.91;54.16
25638;BME280;13496;51.040;13.680;2022-10-31T20:02:51;99937.25;;;21.91;54.14
25638;BME280;13496;51.040;13.680;2022-10-31T20:07:55;99935.44;;;21.91;54.19
25638;BME280;13496;51.040;13.680;2022-10-31T20:12:57;99943.56;;;21.90;54.01
25638;BME280;13496;51.040;13.680;2022-10-31T20:17:58;99932.41;;;21.88;54.15
25638;BME280;13496;51.040;13.680;2022-10-31T20:23:00;99921.00;;;21.87;54.21
25638;BME280;13496;51.040;13.680;2022-10-31T20:28:02;99931.78;;;21.86;54.34
25638;BME280;13496;51.040;13.680;2022-10-31T20:33:04;99931.00;;;21.85;54.37
25638;BME280;13496;51.040;13.680;2022-10-31T20:38:07;99923.06;;;21.85;54.25
25638;BME280;13496;51.040;13.680;2022-10-31T20:43:10;99911.06;;;21.83;54.09
25638;BME280;13496;51.040;13.680;2022-10-31T20:48:13;99909.44;;;21.82;54.13
25638;BME280;13496;51.040;13.680;2022-10-31T20:53:14;99902.56;;;21.81;54.07
25638;BME280;13496;51.040;13.680;2022-10-31T20:58:16;99891.38;;;21.79;54.17
25638;BME280;13496;51.040;13.680;2022-10-31T21:03:18;99881.84;;;21.78;54.05
25638;BME280;13496;51.040;13.680;2022-10-31T21:08:20;99885.28;;;21.78;54.21
25638;BME280;13496;51.040;13.680;2022-10-31T21:13:22;99891.59;;;21.77;54.21
25638;BME280;13496;51.040;13.680;2022-10-31T21:18:24;99890.97;;;21.75;54.21
25638;BME280;13496;51.040;13.680;2022-10-31T21:23:26;99875.94;;;21.75;54.02
25638;BME280;13496;51.040;13.680;2022-10-31T21:28:27;99873.50;;;21.74;54.35
25638;BME280;13496;51.040;13.680;2022-10-31T21:33:29;99880.63;;;21.73;54.04
25638;BME280;13496;51.040;13.680;2022-10-31T21:38:31;99884.47;;;21.71;54.13
25638;BME280;13496;51.040;13.680;2022-10-31T21:43:35;99868.63;;;21.71;54.27
25638;BME280;13496;51.040;13.680;2022-10-31T21:48:38;99864.56;;;21.68;54.20
25638;BME280;13496;51.040;13.680;2022-10-31T21:53:42;99849.53;;;21.69;54.43
25638;BME280;13496;51.040;13.680;2022-10-31T21:59:04;99846.28;;;21.67;54.04
25638;BME280;13496;51.040;13.680;2022-10-31T22:04:06;99834.31;;;21.64;54.17
25638;BME280;13496;51.040;13.680;2022-10-31T22:09:10;99824.75;;;21.63;54.23
25638;BME280;13496;51.040;13.680;2022-10-31T22:14:13;99824.16;;;21.61;53.96
25638;BME280;13496;51.040;13.680;2022-10-31T22:19:15;99826.78;;;21.61;54.07
25638;BME280;13496;51.040;13.680;2022-10-31T22:24:17;99823.56;;;21.59;53.94
25638;BME280;13496;51.040;13.680;2022-10-31T22:29:19;99825.56;;;21.57;54.05
25638;BME280;13496;51.040;13.680;2022-10-31T22:34:21;99819.91;;;21.54;53.94
25638;BME280;13496;51.040;13.680;2022-10-31T22:39:23;99804.88;;;21.54;54.04
25638;BME280;13496;51.040;13.680;2022-10-31T22:44:25;99800.03;;;21.51;54.09
25638;BME280;13496;51.040;13.680;2022-10-31T22:49:26;99796.34;;;21.52;54.04
25638;BME280;13496;51.040;13.680;2022-10-31T22:54:28;99788.03;;;21.48;53.67
25638;BME280;13496;51.040;13.680;2022-10-31T22:59:31;99779.31;;;21.48;53.83
25638;BME280;13496;51.040;13.680;2022-10-31T23:04:33;99775.25;;;21.45;54.13
25638;BME280;13496;51.040;13.680;2022-10-31T23:09:35;99778.09;;;21.44;54.10
25638;BME280;13496;51.040;13.680;2022-10-31T23:14:36;99767.94;;;21.41;54.21
25638;BME280;13496;51.040;13.680;2022-10-31T23:19:38;99764.28;;;21.42;54.10
25638;BME280;13496;51.040;13.680;2022-10-31T23:24:43;99763.47;;;21.41;54.06
25638;BME280;13496;51.040;13.680;2022-10-31T23:29:48;99751.31;;;21.40;53.91
25638;BME280;13496;51.040;13.680;2022-10-31T23:34:52;99741.75;;;21.39;54.01
25638;BME280;13496;51.040;13.680;2022-10-31T23:39:55;99731.41;;;21.38;54.21
25638;BME280;13496;51.040;13.680;2022-10-31T23:44:57;99731.41;;;21.38;54.19
25638;BME280;13496;51.040;13.680;2022-10-31T23:49:59;99713.34;;;21.35;53.95
25638;BME280;13496;51.040;13.680;2022-10-31T23:55:00;99729.16;;;21.35;53.79
